createdAt,value
2023-05-21T00:00:27.000Z,0.00
2023-05-21T00:00:53.000Z,0.00
2023-05-21T00:01:22.000Z,0.00
2023-05-21T00:01:57.000Z,0.00
2023-05-21T00:02:27.000Z,0.00
2023-05-21T00:02:57.000Z,0.00
2023-05-21T00:03:32.000Z,0.00
2023-05-21T00:04:02.000Z,0.00
2023-05-21T00:04:37.000Z,0.00
2023-05-21T00:04:59.000Z,0.00
2023-05-21T00:05:22.000Z,0.00
2023-05-21T00:05:57.000Z,0.00
2023-05-21T00:06:37.000Z,0.00
2023-05-21T00:07:07.000Z,0.00
2023-05-21T00:07:32.000Z,0.00
2023-05-21T00:07:57.000Z,0.00
2023-05-21T00:08:27.000Z,0.00
2023-05-21T00:08:53.000Z,0.00
2023-05-21T00:09:20.000Z,0.00
2023-05-21T00:09:47.000Z,0.00
2023-05-21T00:10:13.000Z,0.00
2023-05-21T00:10:40.000Z,0.00
2023-05-21T00:11:07.000Z,0.00
2023-05-21T00:11:32.000Z,0.00
2023-05-21T00:11:57.000Z,0.00
2023-05-21T00:12:17.000Z,0.00
2023-05-21T00:12:52.000Z,0.00
2023-05-21T00:13:22.000Z,0.00
2023-05-21T00:13:57.000Z,0.00
2023-05-21T00:14:27.000Z,0.00
2023-05-21T00:14:57.000Z,0.00
2023-05-21T00:15:32.000Z,0.00
2023-05-21T00:16:02.000Z,0.00
2023-05-21T00:16:37.000Z,0.00
2023-05-21T00:16:59.000Z,0.00
2023-05-21T00:17:22.000Z,0.00
2023-05-21T00:18:07.000Z,0.00
2023-05-21T00:18:30.000Z,0.00
2023-05-21T00:18:57.000Z,0.00
2023-05-21T00:19:27.000Z,0.00
2023-05-21T00:19:57.000Z,0.00
2023-05-21T00:20:27.000Z,0.00
2023-05-21T00:20:53.000Z,0.00
2023-05-21T00:21:20.000Z,0.00
2023-05-21T00:21:37.000Z,0.00
2023-05-21T00:21:58.000Z,0.00
2023-05-21T00:22:27.000Z,0.00
2023-05-21T00:22:57.000Z,0.00
2023-05-21T00:23:32.000Z,0.00
2023-05-21T00:24:02.000Z,0.00
2023-05-21T00:24:37.000Z,0.00
2023-05-21T00:24:58.000Z,0.00
2023-05-21T00:25:22.000Z,0.00
2023-05-21T00:25:57.000Z,0.00
2023-05-21T00:26:27.000Z,0.00
2023-05-21T00:26:58.000Z,0.00
2023-05-21T00:27:32.000Z,0.00
2023-05-21T00:27:57.000Z,0.00
2023-05-21T00:28:27.000Z,0.00
2023-05-21T00:28:53.000Z,0.00
2023-05-21T00:29:22.000Z,0.00
2023-05-21T00:29:57.000Z,0.00
2023-05-21T00:30:27.000Z,0.00
2023-05-21T00:30:57.000Z,0.00
2023-05-21T00:31:12.000Z,0.00
2023-05-21T00:31:32.000Z,0.00
2023-05-21T00:32:02.000Z,0.00
2023-05-21T00:32:37.000Z,0.00
2023-05-21T00:32:59.000Z,0.00
2023-05-21T00:33:22.000Z,0.00
2023-05-21T00:33:57.000Z,0.00
2023-05-21T00:34:27.000Z,0.00
2023-05-21T00:34:58.000Z,0.00
2023-05-21T00:35:32.000Z,0.00
2023-05-21T00:36:02.000Z,0.00
2023-05-21T00:36:38.000Z,0.00
2023-05-21T00:36:58.000Z,0.00
2023-05-21T00:37:22.000Z,0.00
2023-05-21T00:37:57.000Z,0.00
2023-05-21T00:38:27.000Z,0.00
2023-05-21T00:38:57.000Z,0.00
2023-05-21T00:39:32.000Z,0.00
2023-05-21T00:40:02.000Z,0.00
2023-05-21T00:40:37.000Z,0.00
2023-05-21T00:41:02.000Z,0.00
2023-05-21T00:41:25.000Z,0.00
2023-05-21T00:41:57.000Z,0.00
2023-05-21T00:42:27.000Z,0.00
2023-05-21T00:42:58.000Z,0.00
2023-05-21T00:43:32.000Z,0.00
2023-05-21T00:44:02.000Z,0.00
2023-05-21T00:44:37.000Z,0.00
2023-05-21T00:44:59.000Z,0.00
2023-05-21T00:45:22.000Z,0.00
2023-05-21T00:45:57.000Z,0.00
2023-05-21T00:46:27.000Z,0.00
2023-05-21T00:46:57.000Z,0.00
2023-05-21T00:47:32.000Z,0.00
2023-05-21T00:48:02.000Z,0.00
2023-05-21T00:48:37.000Z,0.00
2023-05-21T00:48:59.000Z,0.00
2023-05-21T00:49:22.000Z,0.00
2023-05-21T00:49:57.000Z,0.00
2023-05-21T00:50:27.000Z,0.00
2023-05-21T00:50:57.000Z,0.00
2023-05-21T00:51:32.000Z,0.00
2023-05-21T00:52:03.000Z,0.00
2023-05-21T00:52:37.000Z,0.00
2023-05-21T00:52:59.000Z,0.00
2023-05-21T00:53:32.000Z,0.00
2023-05-21T00:53:58.000Z,0.00
2023-05-21T00:54:27.000Z,0.00
2023-05-21T00:55:02.000Z,0.00
2023-05-21T00:55:32.000Z,0.00
2023-05-21T00:56:02.000Z,0.00
2023-05-21T00:56:37.000Z,0.00
2023-05-21T00:56:58.000Z,0.00
2023-05-21T00:57:22.000Z,0.00
2023-05-21T00:57:57.000Z,0.00
2023-05-21T00:58:27.000Z,0.00
2023-05-21T00:58:57.000Z,0.00
2023-05-21T00:59:32.000Z,0.00
2023-05-21T01:00:02.000Z,0.00
2023-05-21T01:00:37.000Z,0.00
2023-05-21T01:01:02.000Z,0.00
2023-05-21T01:01:25.000Z,0.00
2023-05-21T01:01:52.000Z,0.00
2023-05-21T01:02:18.000Z,0.00
2023-05-21T01:02:42.000Z,0.00
2023-05-21T01:03:17.000Z,0.00
2023-05-21T01:03:47.000Z,0.00
2023-05-21T01:04:17.000Z,0.00
2023-05-21T01:04:52.000Z,0.00
2023-05-21T01:05:22.000Z,0.00
2023-05-21T01:05:57.000Z,0.00
2023-05-21T01:06:27.000Z,0.00
2023-05-21T01:06:57.000Z,0.00
2023-05-21T01:07:32.000Z,0.00
2023-05-21T01:08:02.000Z,0.00
2023-05-21T01:08:37.000Z,0.00
2023-05-21T01:08:59.000Z,0.00
2023-05-21T01:09:20.000Z,0.00
2023-05-21T01:09:37.000Z,0.00
2023-05-21T01:09:57.000Z,0.00
2023-05-21T01:10:27.000Z,0.00
2023-05-21T01:10:57.000Z,0.00
2023-05-21T01:11:33.000Z,0.00
2023-05-21T01:12:02.000Z,0.00
2023-05-21T01:12:37.000Z,0.00
2023-05-21T01:13:09.000Z,0.00
2023-05-21T01:13:37.000Z,0.00
2023-05-21T01:13:57.000Z,0.00
2023-05-21T01:14:24.000Z,0.00
2023-05-21T01:14:52.000Z,0.00
2023-05-21T01:15:26.000Z,0.00
2023-05-21T01:15:57.000Z,0.00
2023-05-21T01:16:27.000Z,0.00
2023-05-21T01:16:53.000Z,0.00
2023-05-21T01:17:20.000Z,0.00
2023-05-21T01:17:47.000Z,0.00
2023-05-21T01:18:13.000Z,0.00
2023-05-21T01:18:40.000Z,0.00
2023-05-21T01:19:07.000Z,0.00
2023-05-21T01:19:32.000Z,0.00
2023-05-21T01:20:02.000Z,0.00
2023-05-21T01:20:38.000Z,0.00
2023-05-21T01:20:58.000Z,0.00
2023-05-21T01:21:22.000Z,0.00
2023-05-21T01:21:57.000Z,0.00
2023-05-21T01:22:27.000Z,0.00
2023-05-21T01:22:57.000Z,0.00
2023-05-21T01:23:32.000Z,0.00
2023-05-21T01:24:02.000Z,0.00
2023-05-21T01:24:47.000Z,0.00
2023-05-21T01:25:17.000Z,0.00
2023-05-21T01:25:47.000Z,0.00
2023-05-21T01:26:13.000Z,0.00
2023-05-21T01:26:40.000Z,0.00
2023-05-21T01:26:58.000Z,0.00
2023-05-21T01:27:32.000Z,0.00
2023-05-21T01:28:02.000Z,0.00
2023-05-21T01:28:37.000Z,0.00
2023-05-21T01:28:59.000Z,0.00
2023-05-21T01:29:22.000Z,0.00
2023-05-21T01:29:57.000Z,0.00
2023-05-21T01:30:27.000Z,0.00
2023-05-21T01:30:57.000Z,0.00
2023-05-21T01:31:32.000Z,0.00
2023-05-21T01:32:02.000Z,0.00
2023-05-21T01:32:37.000Z,0.00
2023-05-21T01:33:00.000Z,0.00
2023-05-21T01:33:20.000Z,0.00
2023-05-21T01:33:47.000Z,0.00
2023-05-21T01:34:13.000Z,0.00
2023-05-21T01:34:40.000Z,0.00
2023-05-21T01:35:07.000Z,0.00
2023-05-21T01:35:32.000Z,0.00
2023-05-21T01:35:57.000Z,0.00
2023-05-21T01:36:17.000Z,0.00
2023-05-21T01:36:52.000Z,0.00
2023-05-21T01:37:22.000Z,0.00
2023-05-21T01:37:57.000Z,0.00
2023-05-21T01:38:27.000Z,0.00
2023-05-21T01:38:57.000Z,0.00
2023-05-21T01:39:32.000Z,0.00
2023-05-21T01:40:02.000Z,0.00
2023-05-21T01:40:37.000Z,0.00
2023-05-21T01:41:00.000Z,0.00
2023-05-21T01:41:22.000Z,0.00
2023-05-21T01:41:57.000Z,0.00
2023-05-21T01:42:27.000Z,0.00
2023-05-21T01:42:57.000Z,0.00
2023-05-21T01:43:32.000Z,0.00
2023-05-21T01:44:02.000Z,0.00
2023-05-21T01:44:37.000Z,0.00
2023-05-21T01:44:58.000Z,0.00
2023-05-21T01:45:22.000Z,0.00
2023-05-21T01:45:57.000Z,0.00
2023-05-21T01:46:27.000Z,0.00
2023-05-21T01:46:57.000Z,0.00
2023-05-21T01:47:32.000Z,0.00
2023-05-21T01:47:57.000Z,0.00
2023-05-21T01:48:27.000Z,0.00
2023-05-21T01:48:53.000Z,0.00
2023-05-21T01:49:20.000Z,0.00
2023-05-21T01:49:47.000Z,0.00
2023-05-21T01:50:13.000Z,0.00
2023-05-21T01:50:40.000Z,0.00
2023-05-21T01:51:07.000Z,0.00
2023-05-21T01:51:32.000Z,0.00
2023-05-21T01:51:57.000Z,0.00
2023-05-21T01:52:27.000Z,0.00
2023-05-21T01:52:53.000Z,0.00
2023-05-21T01:53:20.000Z,0.00
2023-05-21T01:53:47.000Z,0.00
2023-05-21T01:54:13.000Z,0.00
2023-05-21T01:54:40.000Z,0.00
2023-05-21T01:55:07.000Z,0.00
2023-05-21T01:55:34.000Z,0.00
2023-05-21T01:56:02.000Z,0.00
2023-05-21T01:56:37.000Z,0.00
2023-05-21T01:56:59.000Z,0.00
2023-05-21T01:57:22.000Z,0.00
2023-05-21T01:57:57.000Z,0.00
2023-05-21T01:58:27.000Z,0.00
2023-05-21T01:58:57.000Z,0.00
2023-05-21T01:59:32.000Z,0.00
2023-05-21T02:00:02.000Z,0.00
2023-05-21T02:00:47.000Z,0.00
2023-05-21T02:01:17.000Z,0.00
2023-05-21T02:01:47.000Z,0.00
2023-05-21T02:02:14.000Z,0.00
2023-05-21T02:02:40.000Z,0.00
2023-05-21T02:02:58.000Z,0.00
2023-05-21T02:03:32.000Z,0.00
2023-05-21T02:04:02.000Z,0.00
2023-05-21T02:04:37.000Z,0.00
2023-05-21T02:04:59.000Z,0.00
2023-05-21T02:05:22.000Z,0.00
2023-05-21T02:05:57.000Z,0.00
2023-05-21T02:06:27.000Z,0.00
2023-05-21T02:06:57.000Z,0.00
2023-05-21T02:07:32.000Z,0.00
2023-05-21T02:08:02.000Z,0.00
2023-05-21T02:08:37.000Z,0.00
2023-05-21T02:09:02.000Z,0.00
2023-05-21T02:09:22.000Z,0.00
2023-05-21T02:09:57.000Z,0.00
2023-05-21T02:10:27.000Z,0.00
2023-05-21T02:10:57.000Z,0.00
2023-05-21T02:11:32.000Z,0.00
2023-05-21T02:12:02.000Z,0.00
2023-05-21T02:12:37.000Z,0.00
2023-05-21T02:12:59.000Z,0.00
2023-05-21T02:13:22.000Z,0.00
2023-05-21T02:13:57.000Z,0.00
2023-05-21T02:14:27.000Z,0.00
2023-05-21T02:14:58.000Z,0.00
2023-05-21T02:15:32.000Z,0.00
2023-05-21T02:16:02.000Z,0.00
2023-05-21T02:16:37.000Z,0.00
2023-05-21T02:16:59.000Z,0.00
2023-05-21T02:17:22.000Z,0.00
2023-05-21T02:17:57.000Z,0.00
2023-05-21T02:18:27.000Z,0.00
2023-05-21T02:18:57.000Z,0.00
2023-05-21T02:19:32.000Z,0.00
2023-05-21T02:20:02.000Z,0.00
2023-05-21T02:20:37.000Z,0.00
2023-05-21T02:21:00.000Z,0.00
2023-05-21T02:21:20.000Z,0.00
2023-05-21T02:21:57.000Z,0.00
2023-05-21T02:22:27.000Z,0.00
2023-05-21T02:22:57.000Z,0.00
2023-05-21T02:23:32.000Z,0.00
2023-05-21T02:24:02.000Z,0.00
2023-05-21T02:24:37.000Z,0.00
2023-05-21T02:24:59.000Z,0.00
2023-05-21T02:25:22.000Z,0.00
2023-05-21T02:25:58.000Z,0.00
2023-05-21T02:26:27.000Z,0.00
2023-05-21T02:26:57.000Z,0.00
2023-05-21T02:27:42.000Z,0.00
2023-05-21T02:28:12.000Z,0.00
2023-05-21T02:28:37.000Z,0.00
2023-05-21T02:29:02.000Z,0.00
2023-05-21T02:29:42.000Z,0.00
2023-05-21T02:29:59.000Z,0.00
2023-05-21T02:30:24.000Z,0.00
2023-05-21T02:30:52.000Z,0.00
2023-05-21T02:31:26.000Z,0.00
2023-05-21T02:31:57.000Z,0.00
2023-05-21T02:32:27.000Z,0.00
2023-05-21T02:32:53.000Z,0.00
2023-05-21T02:33:20.000Z,0.00
2023-05-21T02:33:47.000Z,0.00
2023-05-21T02:34:12.000Z,0.00
2023-05-21T02:34:42.000Z,0.00
2023-05-21T02:34:57.000Z,0.00
2023-05-21T02:35:32.000Z,0.00
2023-05-21T02:36:02.000Z,0.00
2023-05-21T02:36:38.000Z,0.00
2023-05-21T02:36:58.000Z,0.00
2023-05-21T02:37:22.000Z,0.00
2023-05-21T02:37:57.000Z,0.00
2023-05-21T02:38:27.000Z,0.00
2023-05-21T02:38:57.000Z,0.00
2023-05-21T02:39:32.000Z,0.00
2023-05-21T02:39:57.000Z,0.00
2023-05-21T02:40:17.000Z,0.00
2023-05-21T02:40:52.000Z,0.00
2023-05-21T02:41:22.000Z,0.00
2023-05-21T02:41:57.000Z,0.00
2023-05-21T02:42:27.000Z,0.00
2023-05-21T02:42:57.000Z,0.00
2023-05-21T02:43:32.000Z,0.00
2023-05-21T02:44:02.000Z,0.00
2023-05-21T02:44:37.000Z,0.00
2023-05-21T02:44:59.000Z,0.00
2023-05-21T02:45:22.000Z,0.00
2023-05-21T02:45:57.000Z,0.00
2023-05-21T02:46:27.000Z,0.00
2023-05-21T02:47:07.000Z,0.00
2023-05-21T02:47:32.000Z,0.00
2023-05-21T02:47:57.000Z,0.00
2023-05-21T02:48:27.000Z,0.00
2023-05-21T02:48:53.000Z,0.00
2023-05-21T02:49:20.000Z,0.00
2023-05-21T02:49:47.000Z,0.00
2023-05-21T02:50:14.000Z,0.00
2023-05-21T02:50:40.000Z,0.00
2023-05-21T02:51:07.000Z,0.00
2023-05-21T02:51:32.000Z,0.00
2023-05-21T02:52:02.000Z,0.00
2023-05-21T02:52:37.000Z,0.00
2023-05-21T02:52:59.000Z,0.00
2023-05-21T02:53:22.000Z,0.00
2023-05-21T02:53:57.000Z,0.00
2023-05-21T02:54:27.000Z,0.00
2023-05-21T02:54:57.000Z,0.00
2023-05-21T02:55:32.000Z,0.00
2023-05-21T02:56:03.000Z,0.00
2023-05-21T02:56:37.000Z,0.00
2023-05-21T02:57:00.000Z,0.00
2023-05-21T02:57:20.000Z,0.00
2023-05-21T02:57:47.000Z,0.00
2023-05-21T02:58:13.000Z,0.00
2023-05-21T02:58:40.000Z,0.00
2023-05-21T02:59:07.000Z,0.00
2023-05-21T02:59:32.000Z,0.00
2023-05-21T02:59:57.000Z,0.00
2023-05-21T03:00:27.000Z,0.00
2023-05-21T03:00:53.000Z,0.00
2023-05-21T03:01:20.000Z,0.00
2023-05-21T03:01:47.000Z,0.00
2023-05-21T03:02:13.000Z,0.00
2023-05-21T03:02:42.000Z,0.00
2023-05-21T03:02:57.000Z,0.00
2023-05-21T03:03:32.000Z,0.00
2023-05-21T03:04:02.000Z,0.00
2023-05-21T03:04:37.000Z,0.00
2023-05-21T03:04:59.000Z,0.00
2023-05-21T03:05:22.000Z,0.00
2023-05-21T03:05:57.000Z,0.00
2023-05-21T03:06:27.000Z,0.00
2023-05-21T03:06:57.000Z,0.00
2023-05-21T03:07:32.000Z,0.00
2023-05-21T03:08:12.000Z,0.00
2023-05-21T03:08:37.000Z,0.00
2023-05-21T03:08:59.000Z,0.00
2023-05-21T03:09:22.000Z,0.00
2023-05-21T03:09:57.000Z,0.00
2023-05-21T03:10:27.000Z,0.00
2023-05-21T03:10:58.000Z,0.00
2023-05-21T03:11:33.000Z,0.00
2023-05-21T03:12:02.000Z,0.00
2023-05-21T03:12:37.000Z,0.00
2023-05-21T03:12:58.000Z,0.00
2023-05-21T03:13:22.000Z,0.00
2023-05-21T03:13:57.000Z,0.00
2023-05-21T03:14:29.000Z,0.00
2023-05-21T03:14:57.000Z,0.00
2023-05-21T03:15:28.000Z,0.00
2023-05-21T03:15:57.000Z,0.00
2023-05-21T03:16:27.000Z,0.00
2023-05-21T03:16:53.000Z,0.00
2023-05-21T03:17:20.000Z,0.00
2023-05-21T03:17:47.000Z,0.00
2023-05-21T03:18:14.000Z,0.00
2023-05-21T03:18:40.000Z,0.00
2023-05-21T03:19:07.000Z,0.00
2023-05-21T03:19:32.000Z,0.00
2023-05-21T03:19:57.000Z,0.00
2023-05-21T03:20:27.000Z,0.00
2023-05-21T03:20:53.000Z,0.00
2023-05-21T03:21:22.000Z,0.00
2023-05-21T03:21:57.000Z,0.00
2023-05-21T03:22:27.000Z,0.00
2023-05-21T03:22:57.000Z,0.00
2023-05-21T03:23:32.000Z,0.00
2023-05-21T03:24:04.000Z,0.00
2023-05-21T03:24:38.000Z,0.00
2023-05-21T03:24:59.000Z,0.00
2023-05-21T03:25:22.000Z,0.00
2023-05-21T03:25:57.000Z,0.00
2023-05-21T03:26:27.000Z,0.00
2023-05-21T03:27:07.000Z,0.00
2023-05-21T03:27:32.000Z,0.00
2023-05-21T03:28:02.000Z,0.00
2023-05-21T03:28:38.000Z,0.00
2023-05-21T03:28:58.000Z,0.00
2023-05-21T03:29:22.000Z,0.00
2023-05-21T03:29:57.000Z,0.00
2023-05-21T03:30:27.000Z,0.36
2023-05-21T03:30:57.000Z,0.00
2023-05-21T03:31:32.000Z,0.36
2023-05-21T03:32:02.000Z,0.36
2023-05-21T03:32:37.000Z,0.36
2023-05-21T03:32:59.000Z,0.36
2023-05-21T03:33:20.000Z,0.85
2023-05-21T03:33:47.000Z,0.36
2023-05-21T03:34:14.000Z,0.36
2023-05-21T03:34:40.000Z,0.36
2023-05-21T03:34:57.000Z,1.22
2023-05-21T03:35:32.000Z,1.71
2023-05-21T03:36:02.000Z,1.22
2023-05-21T03:36:37.000Z,1.22
2023-05-21T03:36:59.000Z,0.36
2023-05-21T03:37:22.000Z,1.22
2023-05-21T03:37:57.000Z,1.71
2023-05-21T03:38:27.000Z,1.22
2023-05-21T03:38:57.000Z,1.22
2023-05-21T03:39:28.000Z,1.71
2023-05-21T03:39:57.000Z,1.22
2023-05-21T03:40:17.000Z,1.22
2023-05-21T03:40:52.000Z,1.71
2023-05-21T03:41:22.000Z,2.57
2023-05-21T03:41:57.000Z,2.08
2023-05-21T03:42:27.000Z,2.57
2023-05-21T03:42:57.000Z,3.43
2023-05-21T03:43:32.000Z,2.57
2023-05-21T03:44:02.000Z,2.57
2023-05-21T03:44:37.000Z,2.94
2023-05-21T03:44:59.000Z,3.43
2023-05-21T03:45:22.000Z,3.79
2023-05-21T03:46:07.000Z,3.79
2023-05-21T03:46:40.000Z,3.79
2023-05-21T03:46:57.000Z,4.28
2023-05-21T03:47:32.000Z,3.79
2023-05-21T03:48:02.000Z,3.79
2023-05-21T03:48:37.000Z,3.79
2023-05-21T03:48:59.000Z,4.28
2023-05-21T03:49:22.000Z,4.77
2023-05-21T03:49:57.000Z,4.77
2023-05-21T03:50:27.000Z,5.63
2023-05-21T03:50:57.000Z,5.63
2023-05-21T03:51:32.000Z,5.63
2023-05-21T03:52:02.000Z,5.63
2023-05-21T03:52:37.000Z,5.99
2023-05-21T03:52:59.000Z,6.48
2023-05-21T03:53:22.000Z,6.48
2023-05-21T03:53:57.000Z,6.48
2023-05-21T03:54:27.000Z,6.48
2023-05-21T03:54:57.000Z,6.85
2023-05-21T03:55:32.000Z,7.70
2023-05-21T03:56:02.000Z,7.34
2023-05-21T03:56:37.000Z,7.70
2023-05-21T03:56:58.000Z,7.34
2023-05-21T03:57:22.000Z,7.70
2023-05-21T03:57:57.000Z,8.19
2023-05-21T03:58:28.000Z,8.19
2023-05-21T03:58:57.000Z,8.19
2023-05-21T03:59:28.000Z,9.05
2023-05-21T03:59:47.000Z,9.05
2023-05-21T04:00:17.000Z,9.91
2023-05-21T04:00:52.000Z,9.54
2023-05-21T04:01:22.000Z,10.39
2023-05-21T04:01:57.000Z,10.39
2023-05-21T04:02:27.000Z,10.39
2023-05-21T04:02:57.000Z,10.39
2023-05-21T04:03:32.000Z,10.77
2023-05-21T04:04:02.000Z,11.25
2023-05-21T04:04:37.000Z,11.25
2023-05-21T04:04:59.000Z,10.77
2023-05-21T04:05:22.000Z,12.11
2023-05-21T04:05:58.000Z,12.11
2023-05-21T04:06:27.000Z,12.48
2023-05-21T04:06:57.000Z,12.48
2023-05-21T04:07:28.000Z,12.97
2023-05-21T04:07:47.000Z,12.97
2023-05-21T04:08:17.000Z,13.33
2023-05-21T04:08:52.000Z,13.82
2023-05-21T04:09:22.000Z,13.33
2023-05-21T04:09:57.000Z,13.82
2023-05-21T04:10:24.000Z,14.68
2023-05-21T04:10:52.000Z,14.31
2023-05-21T04:11:26.000Z,15.17
2023-05-21T04:11:57.000Z,15.53
2023-05-21T04:12:27.000Z,16.02
2023-05-21T04:12:53.000Z,15.53
2023-05-21T04:13:20.000Z,16.02
2023-05-21T04:13:57.000Z,16.39
2023-05-21T04:14:37.000Z,16.88
2023-05-21T04:15:07.000Z,16.88
2023-05-21T04:15:32.000Z,17.73
2023-05-21T04:16:02.000Z,17.73
2023-05-21T04:16:37.000Z,17.73
2023-05-21T04:16:59.000Z,18.11
2023-05-21T04:17:22.000Z,18.60
2023-05-21T04:17:57.000Z,19.08
2023-05-21T04:18:27.000Z,19.08
2023-05-21T04:18:57.000Z,18.60
2023-05-21T04:19:32.000Z,19.08
2023-05-21T04:20:02.000Z,19.08
2023-05-21T04:20:37.000Z,19.94
2023-05-21T04:20:59.000Z,19.45
2023-05-21T04:21:20.000Z,20.31
2023-05-21T04:21:47.000Z,20.80
2023-05-21T04:22:13.000Z,19.94
2023-05-21T04:22:40.000Z,21.16
2023-05-21T04:23:07.000Z,21.65
2023-05-21T04:23:32.000Z,21.16
2023-05-21T04:23:57.000Z,21.16
2023-05-21T04:24:27.000Z,21.65
2023-05-21T04:24:53.000Z,22.02
2023-05-21T04:25:20.000Z,22.51
2023-05-21T04:25:47.000Z,22.51
2023-05-21T04:26:14.000Z,22.02
2023-05-21T04:26:40.000Z,23.36
2023-05-21T04:26:57.000Z,23.36
2023-05-21T04:27:32.000Z,23.36
2023-05-21T04:28:02.000Z,24.22
2023-05-21T04:28:38.000Z,24.22
2023-05-21T04:28:58.000Z,24.22
2023-05-21T04:29:22.000Z,23.85
2023-05-21T04:29:57.000Z,25.07
2023-05-21T04:30:27.000Z,25.56
2023-05-21T04:30:57.000Z,25.07
2023-05-21T04:31:32.000Z,25.56
2023-05-21T04:32:02.000Z,26.79
2023-05-21T04:32:37.000Z,26.79
2023-05-21T04:32:59.000Z,25.94
2023-05-21T04:33:22.000Z,26.79
2023-05-21T04:33:57.000Z,27.28
2023-05-21T04:34:27.000Z,27.65
2023-05-21T04:34:57.000Z,28.14
2023-05-21T04:35:32.000Z,28.14
2023-05-21T04:36:02.000Z,28.14
2023-05-21T04:36:37.000Z,28.63
2023-05-21T04:36:59.000Z,29.48
2023-05-21T04:37:22.000Z,29.85
2023-05-21T04:37:57.000Z,28.99
2023-05-21T04:38:37.000Z,29.85
2023-05-21T04:39:07.000Z,29.48
2023-05-21T04:39:32.000Z,30.34
2023-05-21T04:39:57.000Z,29.48
2023-05-21T04:40:37.000Z,30.70
2023-05-21T04:41:00.000Z,31.19
2023-05-21T04:41:20.000Z,31.19
2023-05-21T04:41:47.000Z,31.56
2023-05-21T04:42:13.000Z,32.05
2023-05-21T04:42:43.000Z,32.05
2023-05-21T04:43:07.000Z,32.42
2023-05-21T04:43:32.000Z,32.05
2023-05-21T04:44:02.000Z,32.42
2023-05-21T04:44:37.000Z,32.90
2023-05-21T04:44:58.000Z,33.39
2023-05-21T04:45:22.000Z,34.25
2023-05-21T04:45:57.000Z,33.39
2023-05-21T04:46:27.000Z,34.25
2023-05-21T04:46:57.000Z,34.62
2023-05-21T04:47:32.000Z,35.11
2023-05-21T04:48:02.000Z,35.11
2023-05-21T04:48:37.000Z,35.48
2023-05-21T04:48:59.000Z,35.97
2023-05-21T04:49:23.000Z,36.82
2023-05-21T04:49:57.000Z,37.68
2023-05-21T04:50:37.000Z,36.82
2023-05-21T04:51:07.000Z,36.82
2023-05-21T04:51:32.000Z,37.68
2023-05-21T04:51:57.000Z,37.19
2023-05-21T04:52:27.000Z,37.19
2023-05-21T04:52:53.000Z,37.19
2023-05-21T04:53:22.000Z,38.17
2023-05-21T04:53:58.000Z,39.02
2023-05-21T04:54:27.000Z,39.02
2023-05-21T04:54:57.000Z,39.02
2023-05-21T04:55:32.000Z,39.88
2023-05-21T04:56:02.000Z,39.88
2023-05-21T04:56:37.000Z,39.88
2023-05-21T04:56:59.000Z,39.88
2023-05-21T04:57:22.000Z,39.88
2023-05-21T04:57:57.000Z,40.24
2023-05-21T04:58:37.000Z,41.10
2023-05-21T04:59:07.000Z,41.10
2023-05-21T04:59:32.000Z,41.10
2023-05-21T05:00:02.000Z,41.96
2023-05-21T05:00:37.000Z,41.96
2023-05-21T05:00:59.000Z,42.45
2023-05-21T05:01:22.000Z,42.45
2023-05-21T05:01:57.000Z,43.31
2023-05-21T05:02:28.000Z,43.31
2023-05-21T05:02:57.000Z,43.80
2023-05-21T05:03:32.000Z,44.16
2023-05-21T05:04:02.000Z,44.65
2023-05-21T05:04:37.000Z,44.65
2023-05-21T05:05:08.000Z,44.65
2023-05-21T05:05:42.000Z,45.02
2023-05-21T05:05:59.000Z,45.87
2023-05-21T05:06:27.000Z,45.87
2023-05-21T05:06:57.000Z,45.87
2023-05-21T05:07:32.000Z,46.73
2023-05-21T05:08:02.000Z,46.36
2023-05-21T05:08:37.000Z,46.73
2023-05-21T05:08:59.000Z,47.22
2023-05-21T05:09:22.000Z,48.07
2023-05-21T05:09:57.000Z,48.93
2023-05-21T05:10:27.000Z,48.93
2023-05-21T05:10:57.000Z,49.42
2023-05-21T05:11:32.000Z,49.42
2023-05-21T05:12:12.000Z,50.65
2023-05-21T05:12:37.000Z,50.65
2023-05-21T05:13:02.000Z,51.50
2023-05-21T05:13:25.000Z,51.50
2023-05-21T05:13:57.000Z,51.50
2023-05-21T05:14:27.000Z,53.34
2023-05-21T05:14:57.000Z,53.70
2023-05-21T05:15:32.000Z,54.19
2023-05-21T05:16:02.000Z,53.34
2023-05-21T05:16:37.000Z,55.05
2023-05-21T05:16:59.000Z,55.05
2023-05-21T05:17:22.000Z,55.05
2023-05-21T05:17:57.000Z,55.90
2023-05-21T05:18:27.000Z,56.27
2023-05-21T05:18:57.000Z,57.25
2023-05-21T05:19:32.000Z,58.11
2023-05-21T05:20:02.000Z,57.62
2023-05-21T05:20:37.000Z,58.48
2023-05-21T05:20:59.000Z,58.97
2023-05-21T05:21:22.000Z,59.82
2023-05-21T05:21:57.000Z,59.82
2023-05-21T05:22:37.000Z,59.82
2023-05-21T05:22:57.000Z,60.19
2023-05-21T05:23:32.000Z,60.68
2023-05-21T05:24:02.000Z,61.53
2023-05-21T05:24:37.000Z,62.88
2023-05-21T05:25:02.000Z,62.88
2023-05-21T05:25:23.000Z,64.10
2023-05-21T05:25:57.000Z,64.59
2023-05-21T05:26:28.000Z,64.10
2023-05-21T05:26:57.000Z,64.96
2023-05-21T05:27:32.000Z,65.45
2023-05-21T05:28:02.000Z,65.45
2023-05-21T05:28:37.000Z,67.16
2023-05-21T05:28:59.000Z,66.80
2023-05-21T05:29:22.000Z,68.02
2023-05-21T05:29:57.000Z,68.51
2023-05-21T05:30:27.000Z,69.73
2023-05-21T05:31:02.000Z,69.73
2023-05-21T05:31:28.000Z,71.07
2023-05-21T05:31:57.000Z,71.56
2023-05-21T05:32:27.000Z,70.22
2023-05-21T05:32:52.000Z,71.93
2023-05-21T05:33:22.000Z,72.42
2023-05-21T05:33:57.000Z,73.65
2023-05-21T05:34:27.000Z,73.65
2023-05-21T05:34:57.000Z,74.50
2023-05-21T05:35:32.000Z,74.50
2023-05-21T05:36:02.000Z,76.34
2023-05-21T05:36:37.000Z,77.19
2023-05-21T05:36:59.000Z,75.48
2023-05-21T05:37:22.000Z,76.34
2023-05-21T05:37:57.000Z,77.19
2023-05-21T05:38:27.000Z,77.56
2023-05-21T05:38:57.000Z,78.41
2023-05-21T05:39:32.000Z,78.05
2023-05-21T05:40:02.000Z,79.27
2023-05-21T05:40:37.000Z,79.27
2023-05-21T05:40:59.000Z,79.76
2023-05-21T05:41:22.000Z,81.48
2023-05-21T05:41:57.000Z,79.76
2023-05-21T05:42:27.000Z,80.25
2023-05-21T05:42:57.000Z,82.82
2023-05-21T05:43:28.000Z,81.48
2023-05-21T05:43:47.000Z,81.10
2023-05-21T05:44:02.000Z,82.82
2023-05-21T05:44:37.000Z,81.48
2023-05-21T05:44:59.000Z,82.82
2023-05-21T05:45:22.000Z,82.33
2023-05-21T05:45:57.000Z,83.19
2023-05-21T05:46:28.000Z,83.68
2023-05-21T05:46:57.000Z,84.04
2023-05-21T05:47:28.000Z,84.04
2023-05-21T05:47:47.000Z,84.04
2023-05-21T05:48:02.000Z,84.53
2023-05-21T05:48:37.000Z,85.02
2023-05-21T05:48:59.000Z,84.04
2023-05-21T05:49:22.000Z,86.24
2023-05-21T05:50:07.000Z,85.88
2023-05-21T05:50:30.000Z,85.39
2023-05-21T05:50:57.000Z,86.24
2023-05-21T05:51:32.000Z,87.10
2023-05-21T05:52:02.000Z,87.59
2023-05-21T05:52:37.000Z,87.10
2023-05-21T05:52:59.000Z,87.59
2023-05-21T05:53:22.000Z,87.96
2023-05-21T05:53:57.000Z,87.96
2023-05-21T05:54:27.000Z,88.82
2023-05-21T05:54:57.000Z,88.82
2023-05-21T05:55:32.000Z,90.65
2023-05-21T05:56:02.000Z,90.65
2023-05-21T05:56:47.000Z,91.02
2023-05-21T05:57:17.000Z,91.02
2023-05-21T05:57:47.000Z,91.51
2023-05-21T05:58:13.000Z,92.73
2023-05-21T05:58:42.000Z,92.36
2023-05-21T05:59:16.000Z,93.58
2023-05-21T05:59:47.000Z,94.56
2023-05-21T06:00:17.000Z,94.93
2023-05-21T06:00:52.000Z,95.42
2023-05-21T06:01:22.000Z,96.27
2023-05-21T06:01:57.000Z,97.13
2023-05-21T06:02:27.000Z,97.99
2023-05-21T06:02:57.000Z,99.70
2023-05-21T06:03:32.000Z,99.70
2023-05-21T06:03:57.000Z,100.56
2023-05-21T06:04:27.000Z,101.05
2023-05-21T06:04:53.000Z,101.41
2023-05-21T06:05:20.000Z,103.13
2023-05-21T06:05:47.000Z,103.13
2023-05-21T06:06:13.000Z,104.48
2023-05-21T06:06:40.000Z,104.48
2023-05-21T06:07:07.000Z,104.96
2023-05-21T06:07:32.000Z,105.82
2023-05-21T06:07:57.000Z,106.19
2023-05-21T06:08:17.000Z,107.53
2023-05-21T06:08:52.000Z,108.39
2023-05-21T06:09:22.000Z,109.24
2023-05-21T06:09:57.000Z,110.10
2023-05-21T06:10:27.000Z,111.44
2023-05-21T06:10:57.000Z,112.30
2023-05-21T06:11:32.000Z,112.67
2023-05-21T06:12:02.000Z,112.67
2023-05-21T06:12:37.000Z,115.73
2023-05-21T06:12:59.000Z,115.36
2023-05-21T06:13:32.000Z,117.07
2023-05-21T06:14:06.000Z,118.78
2023-05-21T06:14:29.000Z,119.27
2023-05-21T06:14:57.000Z,120.50
2023-05-21T06:15:28.000Z,120.50
2023-05-21T06:15:57.000Z,120.99
2023-05-21T06:16:27.000Z,121.36
2023-05-21T06:16:52.000Z,122.70
2023-05-21T06:17:22.000Z,122.70
2023-05-21T06:17:57.000Z,124.41
2023-05-21T06:18:27.000Z,125.27
2023-05-21T06:18:57.000Z,127.47
2023-05-21T06:19:28.000Z,128.33
2023-05-21T06:19:47.000Z,127.96
2023-05-21T06:20:17.000Z,128.82
2023-05-21T06:20:52.000Z,127.96
2023-05-21T06:21:22.000Z,129.68
2023-05-21T06:21:57.000Z,129.19
2023-05-21T06:22:27.000Z,130.53
2023-05-21T06:22:57.000Z,131.88
2023-05-21T06:23:32.000Z,131.88
2023-05-21T06:24:02.000Z,131.88
2023-05-21T06:24:37.000Z,133.59